LIPZ/VCE METAR and TAF weather

Enter ICAO airport designator
Station Type Date Time Source
LIPZ METAR 2022/06/25 22:50 UTC NOAA

LIPZ 252250Z 02006KT 260V050 9999 FEW070 25/19 Q1013 NOSIG


Station Type Date Time Source
LIPZ Decoded METAR 2022/06/25 22:50 UTC NOAA

Venezia / Tessera, Italy (LIPZ) 45-30N 012-20E 6M
Jun 25, 2022 - 06:50 PM EDT / 2022.06.25 2250 UTC
Wind: from the NNE (020 degrees) at 7 MPH (6 KT) (direction variable):0
Visibility: greater than 7 mile(s):0
Sky conditions: mostly clear
Temperature: 77 F (25 C)
Dew Point: 66 F (19 C)
Relative Humidity: 69%
Pressure (altimeter): 29.91 in. Hg (1013 hPa)
ob: LIPZ 252250Z 02006KT 260V050 9999 FEW070 25/19 Q1013 NOSIG
cycle: 23

Station Type Date Time Source
LIPZ TAF 2022/06/25 18:31 UTC NOAA

TAF LIPZ 251700Z 2518/2624 15010KT CAVOK
BECMG 2519/2521 VRB05KT
BECMG 2523/2601 04010KT
BECMG 2610/2612 15012KT
BECMG 2618/2620 VRB05KT

Example: see airport list